sensor_id;sensor_type;location;lat;lon;timestamp;P1;durP1;ratioP1;P2;durP2;ratioP2
15287;SDS011;7745;48.708;9.026;2022-12-05T00:05:56;28.13;;;16.60;;
15287;SDS011;7745;48.708;9.026;2022-12-05T00:14:49;29.17;;;16.80;;
15287;SDS011;7745;48.708;9.026;2022-12-05T00:17:47;29.07;;;15.47;;
15287;SDS011;7745;48.708;9.026;2022-12-05T00:24:06;30.60;;;16.63;;
15287;SDS011;7745;48.708;9.026;2022-12-05T00:27:05;29.70;;;16.17;;
15287;SDS011;7745;48.708;9.026;2022-12-05T00:30:15;28.20;;;15.40;;
15287;SDS011;7745;48.708;9.026;2022-12-05T00:33:20;29.97;;;15.63;;
15287;SDS011;7745;48.708;9.026;2022-12-05T00:36:27;28.27;;;16.20;;
15287;SDS011;7745;48.708;9.026;2022-12-05T00:39:40;28.03;;;15.57;;
15287;SDS011;7745;48.708;9.026;2022-12-05T00:42:27;24.87;;;14.70;;
15287;SDS011;7745;48.708;9.026;2022-12-05T00:45:36;26.63;;;14.80;;
15287;SDS011;7745;48.708;9.026;2022-12-05T00:55:16;23.63;;;12.97;;
15287;SDS011;7745;48.708;9.026;2022-12-05T01:01:01;20.63;;;11.87;;
15287;SDS011;7745;48.708;9.026;2022-12-05T01:04:07;21.17;;;12.23;;
15287;SDS011;7745;48.708;9.026;2022-12-05T01:07:04;21.43;;;12.03;;
15287;SDS011;7745;48.708;9.026;2022-12-05T01:10:16;20.90;;;12.90;;
15287;SDS011;7745;48.708;9.026;2022-12-05T01:13:12;20.23;;;12.00;;
15287;SDS011;7745;48.708;9.026;2022-12-05T01:16:10;21.13;;;12.57;;
15287;SDS011;7745;48.708;9.026;2022-12-05T01:19:14;22.03;;;12.73;;
15287;SDS011;7745;48.708;9.026;2022-12-05T01:28:29;21.30;;;12.03;;
15287;SDS011;7745;48.708;9.026;2022-12-05T01:31:25;22.73;;;13.13;;
15287;SDS011;7745;48.708;9.026;2022-12-05T01:34:15;22.80;;;13.57;;
15287;SDS011;7745;48.708;9.026;2022-12-05T01:37:08;21.90;;;12.33;;
15287;SDS011;7745;48.708;9.026;2022-12-05T01:47:06;21.63;;;11.53;;
15287;SDS011;7745;48.708;9.026;2022-12-05T01:50:06;21.63;;;12.60;;
15287;SDS011;7745;48.708;9.026;2022-12-05T02:03:01;23.47;;;12.97;;
15287;SDS011;7745;48.708;9.026;2022-12-05T02:06:00;24.30;;;13.37;;
15287;SDS011;7745;48.708;9.026;2022-12-05T02:14:45;27.77;;;14.17;;
15287;SDS011;7745;48.708;9.026;2022-12-05T02:17:45;25.67;;;13.30;;
15287;SDS011;7745;48.708;9.026;2022-12-05T02:20:46;27.20;;;14.33;;
15287;SDS011;7745;48.708;9.026;2022-12-05T02:24:13;30.77;;;14.67;;
15287;SDS011;7745;48.708;9.026;2022-12-05T02:27:42;28.87;;;14.73;;
15287;SDS011;7745;48.708;9.026;2022-12-05T02:38:06;28.07;;;14.17;;
15287;SDS011;7745;48.708;9.026;2022-12-05T02:48:16;31.13;;;16.07;;
15287;SDS011;7745;48.708;9.026;2022-12-05T03:10:25;31.07;;;16.23;;
15287;SDS011;7745;48.708;9.026;2022-12-05T03:17:04;33.60;;;15.43;;
15287;SDS011;7745;48.708;9.026;2022-12-05T03:40:28;28.17;;;14.97;;
15287;SDS011;7745;48.708;9.026;2022-12-05T03:43:15;28.73;;;14.90;;
15287;SDS011;7745;48.708;9.026;2022-12-05T04:03:02;28.40;;;16.07;;
15287;SDS011;7745;48.708;9.026;2022-12-05T04:09:00;22.37;;;13.73;;
15287;SDS011;7745;48.708;9.026;2022-12-05T04:11:52;25.93;;;13.63;;
15287;SDS011;7745;48.708;9.026;2022-12-05T04:14:41;27.70;;;14.70;;
15287;SDS011;7745;48.708;9.026;2022-12-05T04:17:46;25.90;;;13.97;;
15287;SDS011;7745;48.708;9.026;2022-12-05T04:20:47;23.73;;;13.27;;
15287;SDS011;7745;48.708;9.026;2022-12-05T04:27:19;22.63;;;14.00;;
15287;SDS011;7745;48.708;9.026;2022-12-05T04:30:07;26.20;;;13.60;;
15287;SDS011;7745;48.708;9.026;2022-12-05T04:36:11;27.93;;;15.03;;
15287;SDS011;7745;48.708;9.026;2022-12-05T04:42:40;25.23;;;14.57;;
15287;SDS011;7745;48.708;9.026;2022-12-05T04:45:29;21.67;;;12.17;;
15287;SDS011;7745;48.708;9.026;2022-12-05T04:52:01;20.80;;;12.67;;
15287;SDS011;7745;48.708;9.026;2022-12-05T04:55:02;23.23;;;13.33;;
15287;SDS011;7745;48.708;9.026;2022-12-05T04:57:35;21.00;;;13.00;;
15287;SDS011;7745;48.708;9.026;2022-12-05T05:00:08;23.00;;;12.37;;
15287;SDS011;7745;48.708;9.026;2022-12-05T05:02:39;24.67;;;13.63;;
15287;SDS011;7745;48.708;9.026;2022-12-05T05:05:11;19.17;;;12.00;;
15287;SDS011;7745;48.708;9.026;2022-12-05T05:07:42;23.93;;;12.57;;
15287;SDS011;7745;48.708;9.026;2022-12-05T05:10:16;20.50;;;12.33;;
15287;SDS011;7745;48.708;9.026;2022-12-05T05:12:51;17.90;;;12.03;;
15287;SDS011;7745;48.708;9.026;2022-12-05T05:15:24;20.93;;;12.13;;
15287;SDS011;7745;48.708;9.026;2022-12-05T05:17:58;21.60;;;12.87;;
15287;SDS011;7745;48.708;9.026;2022-12-05T05:20:34;23.53;;;12.80;;
15287;SDS011;7745;48.708;9.026;2022-12-05T05:23:30;18.13;;;11.67;;
15287;SDS011;7745;48.708;9.026;2022-12-05T05:26:09;19.60;;;12.40;;
15287;SDS011;7745;48.708;9.026;2022-12-05T05:28:39;19.90;;;11.23;;
15287;SDS011;7745;48.708;9.026;2022-12-05T05:31:11;18.30;;;11.53;;
15287;SDS011;7745;48.708;9.026;2022-12-05T05:33:48;19.70;;;11.93;;
15287;SDS011;7745;48.708;9.026;2022-12-05T05:36:23;18.93;;;11.50;;
15287;SDS011;7745;48.708;9.026;2022-12-05T05:38:56;17.27;;;11.20;;
15287;SDS011;7745;48.708;9.026;2022-12-05T05:41:24;18.83;;;11.77;;
15287;SDS011;7745;48.708;9.026;2022-12-05T05:43:52;15.67;;;10.87;;
15287;SDS011;7745;48.708;9.026;2022-12-05T05:46:21;17.27;;;11.43;;
15287;SDS011;7745;48.708;9.026;2022-12-05T05:48:51;17.63;;;11.43;;
15287;SDS011;7745;48.708;9.026;2022-12-05T05:51:19;18.27;;;11.77;;
15287;SDS011;7745;48.708;9.026;2022-12-05T05:53:47;18.10;;;11.47;;
15287;SDS011;7745;48.708;9.026;2022-12-05T05:56:16;19.83;;;11.90;;
15287;SDS011;7745;48.708;9.026;2022-12-05T05:58:44;16.67;;;10.60;;
15287;SDS011;7745;48.708;9.026;2022-12-05T06:01:11;18.20;;;10.73;;
15287;SDS011;7745;48.708;9.026;2022-12-05T06:03:39;16.30;;;11.13;;
15287;SDS011;7745;48.708;9.026;2022-12-05T06:06:09;15.77;;;10.93;;
15287;SDS011;7745;48.708;9.026;2022-12-05T06:08:37;19.70;;;11.00;;
15287;SDS011;7745;48.708;9.026;2022-12-05T06:11:05;15.23;;;10.83;;
15287;SDS011;7745;48.708;9.026;2022-12-05T06:13:33;19.70;;;11.33;;
15287;SDS011;7745;48.708;9.026;2022-12-05T06:16:00;15.50;;;11.00;;
15287;SDS011;7745;48.708;9.026;2022-12-05T06:18:31;18.73;;;12.47;;
15287;SDS011;7745;48.708;9.026;2022-12-05T06:21:11;18.20;;;11.30;;
15287;SDS011;7745;48.708;9.026;2022-12-05T06:23:57;18.10;;;11.23;;
15287;SDS011;7745;48.708;9.026;2022-12-05T06:26:39;20.97;;;12.10;;
15287;SDS011;7745;48.708;9.026;2022-12-05T06:29:13;15.87;;;11.13;;
15287;SDS011;7745;48.708;9.026;2022-12-05T06:31:42;20.17;;;12.43;;
15287;SDS011;7745;48.708;9.026;2022-12-05T06:34:09;18.63;;;11.87;;
15287;SDS011;7745;48.708;9.026;2022-12-05T06:36:38;20.40;;;11.87;;
15287;SDS011;7745;48.708;9.026;2022-12-05T06:39:04;18.47;;;11.90;;
15287;SDS011;7745;48.708;9.026;2022-12-05T06:41:31;19.60;;;11.70;;
15287;SDS011;7745;48.708;9.026;2022-12-05T06:43:58;19.03;;;11.80;;
15287;SDS011;7745;48.708;9.026;2022-12-05T06:46:25;21.97;;;12.77;;
15287;SDS011;7745;48.708;9.026;2022-12-05T06:48:56;17.97;;;11.47;;
15287;SDS011;7745;48.708;9.026;2022-12-05T06:51:23;16.13;;;10.60;;
15287;SDS011;7745;48.708;9.026;2022-12-05T06:53:55;20.13;;;11.67;;
15287;SDS011;7745;48.708;9.026;2022-12-05T06:56:25;16.07;;;11.10;;
15287;SDS011;7745;48.708;9.026;2022-12-05T06:58:55;19.67;;;12.10;;
15287;SDS011;7745;48.708;9.026;2022-12-05T07:01:24;16.83;;;12.00;;
15287;SDS011;7745;48.708;9.026;2022-12-05T07:04:06;15.30;;;11.10;;
15287;SDS011;7745;48.708;9.026;2022-12-05T07:06:50;17.10;;;11.40;;
15287;SDS011;7745;48.708;9.026;2022-12-05T07:09:20;15.80;;;10.47;;
15287;SDS011;7745;48.708;9.026;2022-12-05T07:12:08;20.07;;;11.53;;
15287;SDS011;7745;48.708;9.026;2022-12-05T07:14:44;16.97;;;11.03;;
15287;SDS011;7745;48.708;9.026;2022-12-05T07:18:11;16.53;;;11.03;;
15287;SDS011;7745;48.708;9.026;2022-12-05T07:36:54;12.10;;;9.20;;
15287;SDS011;7745;48.708;9.026;2022-12-05T07:40:14;12.50;;;9.37;;
15287;SDS011;7745;48.708;9.026;2022-12-05T07:47:05;13.27;;;9.87;;
15287;SDS011;7745;48.708;9.026;2022-12-05T07:49:33;12.97;;;9.37;;
15287;SDS011;7745;48.708;9.026;2022-12-05T07:52:02;14.00;;;9.73;;
15287;SDS011;7745;48.708;9.026;2022-12-05T07:54:31;11.97;;;9.23;;
15287;SDS011;7745;48.708;9.026;2022-12-05T07:57:01;12.37;;;9.80;;
15287;SDS011;7745;48.708;9.026;2022-12-05T07:59:28;12.67;;;9.60;;
15287;SDS011;7745;48.708;9.026;2022-12-05T08:01:58;12.63;;;9.13;;
15287;SDS011;7745;48.708;9.026;2022-12-05T08:04:28;12.13;;;9.83;;
15287;SDS011;7745;48.708;9.026;2022-12-05T08:06:58;13.70;;;9.67;;
15287;SDS011;7745;48.708;9.026;2022-12-05T08:09:28;11.57;;;9.00;;
15287;SDS011;7745;48.708;9.026;2022-12-05T08:11:58;12.47;;;9.23;;
15287;SDS011;7745;48.708;9.026;2022-12-05T08:14:38;12.40;;;8.93;;
15287;SDS011;7745;48.708;9.026;2022-12-05T08:17:28;12.60;;;9.00;;
15287;SDS011;7745;48.708;9.026;2022-12-05T08:20:32;13.30;;;8.73;;
15287;SDS011;7745;48.708;9.026;2022-12-05T08:23:40;11.63;;;9.10;;
15287;SDS011;7745;48.708;9.026;2022-12-05T08:26:52;11.80;;;8.97;;
15287;SDS011;7745;48.708;9.026;2022-12-05T08:29:48;13.50;;;9.33;;
15287;SDS011;7745;48.708;9.026;2022-12-05T08:39:27;12.97;;;9.13;;
15287;SDS011;7745;48.708;9.026;2022-12-05T08:46:12;11.17;;;8.87;;
15287;SDS011;7745;48.708;9.026;2022-12-05T08:49:22;14.53;;;9.93;;
15287;SDS011;7745;48.708;9.026;2022-12-05T08:51:52;11.27;;;8.77;;
15287;SDS011;7745;48.708;9.026;2022-12-05T08:54:27;15.00;;;9.57;;
15287;SDS011;7745;48.708;9.026;2022-12-05T08:57:14;10.73;;;8.10;;
15287;SDS011;7745;48.708;9.026;2022-12-05T08:59:57;12.90;;;9.70;;
15287;SDS011;7745;48.708;9.026;2022-12-05T09:03:03;12.17;;;8.60;;
15287;SDS011;7745;48.708;9.026;2022-12-05T09:16:47;10.93;;;8.57;;
15287;SDS011;7745;48.708;9.026;2022-12-05T09:19:16;9.47;;;7.80;;
15287;SDS011;7745;48.708;9.026;2022-12-05T09:21:45;10.93;;;8.40;;
15287;SDS011;7745;48.708;9.026;2022-12-05T09:24:12;12.53;;;8.73;;
15287;SDS011;7745;48.708;9.026;2022-12-05T09:26:39;11.03;;;8.27;;
15287;SDS011;7745;48.708;9.026;2022-12-05T09:29:08;13.70;;;8.53;;
15287;SDS011;7745;48.708;9.026;2022-12-05T09:31:35;11.10;;;8.40;;
15287;SDS011;7745;48.708;9.026;2022-12-05T09:34:04;10.23;;;7.73;;
15287;SDS011;7745;48.708;9.026;2022-12-05T09:36:31;8.97;;;7.77;;
15287;SDS011;7745;48.708;9.026;2022-12-05T09:39:03;9.03;;;7.77;;
15287;SDS011;7745;48.708;9.026;2022-12-05T09:41:44;10.47;;;7.10;;
15287;SDS011;7745;48.708;9.026;2022-12-05T09:44:37;9.37;;;7.73;;
15287;SDS011;7745;48.708;9.026;2022-12-05T09:47:25;9.17;;;7.77;;
15287;SDS011;7745;48.708;9.026;2022-12-05T09:50:00;11.97;;;8.47;;
15287;SDS011;7745;48.708;9.026;2022-12-05T09:52:36;8.77;;;7.57;;
15287;SDS011;7745;48.708;9.026;2022-12-05T09:55:09;10.60;;;8.17;;
15287;SDS011;7745;48.708;9.026;2022-12-05T09:57:39;10.57;;;8.27;;
15287;SDS011;7745;48.708;9.026;2022-12-05T10:03:37;15.57;;;11.03;;
15287;SDS011;7745;48.708;9.026;2022-12-05T10:13:02;9.80;;;7.83;;
15287;SDS011;7745;48.708;9.026;2022-12-05T10:22:57;12.13;;;8.27;;
15287;SDS011;7745;48.708;9.026;2022-12-05T10:25:28;10.73;;;8.90;;
15287;SDS011;7745;48.708;9.026;2022-12-05T10:27:59;11.77;;;7.90;;
15287;SDS011;7745;48.708;9.026;2022-12-05T10:30:31;12.07;;;8.90;;
15287;SDS011;7745;48.708;9.026;2022-12-05T10:33:00;9.97;;;7.83;;
15287;SDS011;7745;48.708;9.026;2022-12-05T10:35:31;9.73;;;8.03;;
15287;SDS011;7745;48.708;9.026;2022-12-05T10:38:01;10.17;;;8.03;;
15287;SDS011;7745;48.708;9.026;2022-12-05T10:40:32;9.97;;;7.77;;
15287;SDS011;7745;48.708;9.026;2022-12-05T10:43:06;10.20;;;7.00;;
15287;SDS011;7745;48.708;9.026;2022-12-05T10:45:35;7.47;;;5.97;;
15287;SDS011;7745;48.708;9.026;2022-12-05T10:48:07;9.00;;;6.70;;
15287;SDS011;7745;48.708;9.026;2022-12-05T10:50:36;9.37;;;6.50;;
15287;SDS011;7745;48.708;9.026;2022-12-05T10:53:06;8.13;;;6.10;;
15287;SDS011;7745;48.708;9.026;2022-12-05T10:55:35;9.80;;;6.60;;
15287;SDS011;7745;48.708;9.026;2022-12-05T10:58:10;8.40;;;6.67;;
15287;SDS011;7745;48.708;9.026;2022-12-05T11:00:39;9.57;;;6.60;;
15287;SDS011;7745;48.708;9.026;2022-12-05T11:03:20;9.70;;;6.70;;
15287;SDS011;7745;48.708;9.026;2022-12-05T11:05:50;8.00;;;6.20;;
15287;SDS011;7745;48.708;9.026;2022-12-05T11:08:23;7.43;;;5.20;;
15287;SDS011;7745;48.708;9.026;2022-12-05T11:11:02;6.03;;;4.73;;
15287;SDS011;7745;48.708;9.026;2022-12-05T11:13:32;5.40;;;4.90;;
15287;SDS011;7745;48.708;9.026;2022-12-05T11:16:01;5.00;;;4.40;;
15287;SDS011;7745;48.708;9.026;2022-12-05T11:18:33;9.03;;;4.80;;
15287;SDS011;7745;48.708;9.026;2022-12-05T11:21:09;6.17;;;4.77;;
15287;SDS011;7745;48.708;9.026;2022-12-05T12:24:23;9.00;;;4.40;;
15287;SDS011;7745;48.708;9.026;2022-12-05T12:27:05;4.90;;;3.73;;
15287;SDS011;7745;48.708;9.026;2022-12-05T12:30:27;6.83;;;4.90;;
15287;SDS011;7745;48.708;9.026;2022-12-05T12:33:09;8.07;;;4.57;;
15287;SDS011;7745;48.708;9.026;2022-12-05T12:35:43;8.33;;;4.03;;
15287;SDS011;7745;48.708;9.026;2022-12-05T12:41:51;6.20;;;5.00;;
15287;SDS011;7745;48.708;9.026;2022-12-05T12:44:58;4.37;;;3.97;;
15287;SDS011;7745;48.708;9.026;2022-12-05T12:47:47;7.33;;;4.00;;
15287;SDS011;7745;48.708;9.026;2022-12-05T12:50:33;9.13;;;4.43;;
15287;SDS011;7745;48.708;9.026;2022-12-05T12:53:07;6.53;;;4.10;;
15287;SDS011;7745;48.708;9.026;2022-12-05T12:55:52;5.83;;;4.47;;
15287;SDS011;7745;48.708;9.026;2022-12-05T12:58:30;6.10;;;4.13;;
15287;SDS011;7745;48.708;9.026;2022-12-05T13:01:09;6.23;;;4.53;;
15287;SDS011;7745;48.708;9.026;2022-12-05T13:03:49;4.87;;;3.83;;
15287;SDS011;7745;48.708;9.026;2022-12-05T13:06:27;8.30;;;4.63;;
15287;SDS011;7745;48.708;9.026;2022-12-05T13:08:57;9.90;;;4.47;;
15287;SDS011;7745;48.708;9.026;2022-12-05T13:11:28;5.33;;;4.23;;
15287;SDS011;7745;48.708;9.026;2022-12-05T13:14:04;12.73;;;4.90;;
15287;SDS011;7745;48.708;9.026;2022-12-05T13:16:38;5.07;;;4.07;;
15287;SDS011;7745;48.708;9.026;2022-12-05T13:19:25;4.10;;;3.70;;
15287;SDS011;7745;48.708;9.026;2022-12-05T13:22:02;7.67;;;4.50;;
15287;SDS011;7745;48.708;9.026;2022-12-05T13:24:34;16.53;;;4.67;;
15287;SDS011;7745;48.708;9.026;2022-12-05T13:27:06;8.73;;;4.07;;
15287;SDS011;7745;48.708;9.026;2022-12-05T13:29:42;6.80;;;3.90;;
15287;SDS011;7745;48.708;9.026;2022-12-05T13:32:23;4.43;;;3.57;;
15287;SDS011;7745;48.708;9.026;2022-12-05T13:34:55;4.97;;;4.00;;
15287;SDS011;7745;48.708;9.026;2022-12-05T13:37:28;5.23;;;3.67;;
15287;SDS011;7745;48.708;9.026;2022-12-05T13:40:18;9.60;;;3.57;;
15287;SDS011;7745;48.708;9.026;2022-12-05T13:43:09;4.83;;;3.70;;
15287;SDS011;7745;48.708;9.026;2022-12-05T13:45:57;6.53;;;3.97;;
15287;SDS011;7745;48.708;9.026;2022-12-05T13:48:29;6.90;;;3.70;;
15287;SDS011;7745;48.708;9.026;2022-12-05T13:51:02;5.20;;;3.40;;
15287;SDS011;7745;48.708;9.026;2022-12-05T13:53:36;5.73;;;3.83;;
15287;SDS011;7745;48.708;9.026;2022-12-05T13:56:21;6.67;;;3.77;;
15287;SDS011;7745;48.708;9.026;2022-12-05T13:58:54;5.10;;;3.00;;
15287;SDS011;7745;48.708;9.026;2022-12-05T14:07:11;4.00;;;3.20;;
15287;SDS011;7745;48.708;9.026;2022-12-05T14:10:02;6.63;;;3.53;;
15287;SDS011;7745;48.708;9.026;2022-12-05T14:12:53;4.60;;;3.40;;
15287;SDS011;7745;48.708;9.026;2022-12-05T14:15:29;5.67;;;3.67;;
15287;SDS011;7745;48.708;9.026;2022-12-05T14:18:04;9.17;;;3.63;;
15287;SDS011;7745;48.708;9.026;2022-12-05T14:20:48;4.90;;;3.10;;
15287;SDS011;7745;48.708;9.026;2022-12-05T14:23:30;6.50;;;2.57;;
15287;SDS011;7745;48.708;9.026;2022-12-05T14:26:29;3.57;;;2.33;;
15287;SDS011;7745;48.708;9.026;2022-12-05T14:29:14;4.13;;;2.40;;
15287;SDS011;7745;48.708;9.026;2022-12-05T14:31:53;2.90;;;2.40;;
15287;SDS011;7745;48.708;9.026;2022-12-05T14:34:45;2.87;;;2.30;;
15287;SDS011;7745;48.708;9.026;2022-12-05T14:37:22;5.30;;;2.27;;
15287;SDS011;7745;48.708;9.026;2022-12-05T14:39:56;2.47;;;1.73;;
15287;SDS011;7745;48.708;9.026;2022-12-05T14:42:26;4.97;;;1.80;;
15287;SDS011;7745;48.708;9.026;2022-12-05T14:45:02;2.83;;;1.80;;
15287;SDS011;7745;48.708;9.026;2022-12-05T14:47:53;1.90;;;1.70;;
15287;SDS011;7745;48.708;9.026;2022-12-05T14:50:38;2.03;;;1.73;;
15287;SDS011;7745;48.708;9.026;2022-12-05T14:53:19;2.33;;;2.00;;
15287;SDS011;7745;48.708;9.026;2022-12-05T14:56:00;4.63;;;2.40;;
15287;SDS011;7745;48.708;9.026;2022-12-05T14:58:51;4.17;;;2.80;;
15287;SDS011;7745;48.708;9.026;2022-12-05T15:01:25;6.03;;;3.30;;
15287;SDS011;7745;48.708;9.026;2022-12-05T15:03:59;5.90;;;2.97;;
15287;SDS011;7745;48.708;9.026;2022-12-05T15:06:41;2.77;;;2.33;;
15287;SDS011;7745;48.708;9.026;2022-12-05T15:09:23;2.60;;;2.23;;
15287;SDS011;7745;48.708;9.026;2022-12-05T15:11:57;2.90;;;1.97;;
15287;SDS011;7745;48.708;9.026;2022-12-05T15:14:27;5.10;;;2.40;;
15287;SDS011;7745;48.708;9.026;2022-12-05T15:16:57;4.10;;;2.23;;
15287;SDS011;7745;48.708;9.026;2022-12-05T15:19:28;2.10;;;1.90;;
15287;SDS011;7745;48.708;9.026;2022-12-05T15:22:12;3.47;;;2.40;;
15287;SDS011;7745;48.708;9.026;2022-12-05T15:24:47;4.33;;;2.27;;
15287;SDS011;7745;48.708;9.026;2022-12-05T15:27:27;5.80;;;2.67;;
15287;SDS011;7745;48.708;9.026;2022-12-05T15:29:54;5.37;;;2.70;;
15287;SDS011;7745;48.708;9.026;2022-12-05T15:32:23;2.60;;;2.30;;
15287;SDS011;7745;48.708;9.026;2022-12-05T15:34:52;2.73;;;2.23;;
15287;SDS011;7745;48.708;9.026;2022-12-05T15:37:25;3.40;;;2.87;;
15287;SDS011;7745;48.708;9.026;2022-12-05T15:39:55;6.20;;;3.10;;
15287;SDS011;7745;48.708;9.026;2022-12-05T15:42:24;6.53;;;3.70;;
15287;SDS011;7745;48.708;9.026;2022-12-05T15:44:59;12.17;;;5.33;;
15287;SDS011;7745;48.708;9.026;2022-12-05T15:47:50;6.77;;;4.10;;
15287;SDS011;7745;48.708;9.026;2022-12-05T15:50:23;11.37;;;4.73;;
15287;SDS011;7745;48.708;9.026;2022-12-05T15:52:56;8.30;;;3.70;;
15287;SDS011;7745;48.708;9.026;2022-12-05T15:55:29;5.20;;;3.40;;
15287;SDS011;7745;48.708;9.026;2022-12-05T15:58:02;3.53;;;2.90;;
15287;SDS011;7745;48.708;9.026;2022-12-05T16:00:33;6.50;;;3.57;;
15287;SDS011;7745;48.708;9.026;2022-12-05T16:03:04;3.70;;;2.80;;
15287;SDS011;7745;48.708;9.026;2022-12-05T16:05:38;3.37;;;2.80;;
15287;SDS011;7745;48.708;9.026;2022-12-05T16:08:08;5.03;;;3.20;;
15287;SDS011;7745;48.708;9.026;2022-12-05T16:10:38;6.13;;;4.87;;
15287;SDS011;7745;48.708;9.026;2022-12-05T16:13:05;4.40;;;3.50;;
15287;SDS011;7745;48.708;9.026;2022-12-05T16:15:40;4.13;;;2.67;;
15287;SDS011;7745;48.708;9.026;2022-12-05T16:18:18;3.07;;;2.53;;
15287;SDS011;7745;48.708;9.026;2022-12-05T16:20:49;5.60;;;4.03;;
15287;SDS011;7745;48.708;9.026;2022-12-05T16:23:22;6.33;;;4.27;;
15287;SDS011;7745;48.708;9.026;2022-12-05T16:25:51;5.33;;;4.07;;
15287;SDS011;7745;48.708;9.026;2022-12-05T16:28:18;6.17;;;3.20;;
15287;SDS011;7745;48.708;9.026;2022-12-05T16:30:56;5.23;;;3.00;;
15287;SDS011;7745;48.708;9.026;2022-12-05T16:33:25;4.97;;;2.97;;
15287;SDS011;7745;48.708;9.026;2022-12-05T16:35:54;4.50;;;3.10;;
15287;SDS011;7745;48.708;9.026;2022-12-05T16:38:23;7.23;;;3.10;;
15287;SDS011;7745;48.708;9.026;2022-12-05T16:40:54;6.17;;;3.73;;
15287;SDS011;7745;48.708;9.026;2022-12-05T16:43:24;6.20;;;3.77;;
15287;SDS011;7745;48.708;9.026;2022-12-05T16:45:53;8.97;;;3.80;;
15287;SDS011;7745;48.708;9.026;2022-12-05T16:48:23;8.47;;;3.30;;
15287;SDS011;7745;48.708;9.026;2022-12-05T16:50:51;3.83;;;3.10;;
15287;SDS011;7745;48.708;9.026;2022-12-05T16:53:20;3.13;;;2.80;;
15287;SDS011;7745;48.708;9.026;2022-12-05T16:55:55;5.00;;;3.40;;
15287;SDS011;7745;48.708;9.026;2022-12-05T16:58:26;5.87;;;3.13;;
15287;SDS011;7745;48.708;9.026;2022-12-05T17:01:00;5.00;;;3.40;;
15287;SDS011;7745;48.708;9.026;2022-12-05T17:03:29;7.33;;;3.53;;
15287;SDS011;7745;48.708;9.026;2022-12-05T17:05:56;4.73;;;3.37;;
15287;SDS011;7745;48.708;9.026;2022-12-05T17:08:28;3.40;;;3.10;;
15287;SDS011;7745;48.708;9.026;2022-12-05T17:10:55;5.07;;;3.67;;
15287;SDS011;7745;48.708;9.026;2022-12-05T17:13:25;3.20;;;2.90;;
15287;SDS011;7745;48.708;9.026;2022-12-05T17:15:54;7.10;;;4.00;;
15287;SDS011;7745;48.708;9.026;2022-12-05T17:18:34;6.00;;;4.17;;
15287;SDS011;7745;48.708;9.026;2022-12-05T17:21:04;5.63;;;3.90;;
15287;SDS011;7745;48.708;9.026;2022-12-05T17:23:33;8.73;;;4.63;;
15287;SDS011;7745;48.708;9.026;2022-12-05T17:26:03;21.03;;;12.77;;
15287;SDS011;7745;48.708;9.026;2022-12-05T17:28:33;25.43;;;14.90;;
15287;SDS011;7745;48.708;9.026;2022-12-05T17:30:59;61.77;;;48.63;;
15287;SDS011;7745;48.708;9.026;2022-12-05T17:33:26;7.87;;;6.50;;
15287;SDS011;7745;48.708;9.026;2022-12-05T17:36:07;7.50;;;5.40;;
15287;SDS011;7745;48.708;9.026;2022-12-05T17:38:40;20.80;;;17.57;;
15287;SDS011;7745;48.708;9.026;2022-12-05T17:41:23;13.53;;;11.03;;
15287;SDS011;7745;48.708;9.026;2022-12-05T17:44:18;9.00;;;6.13;;
15287;SDS011;7745;48.708;9.026;2022-12-05T17:46:48;8.07;;;5.33;;
15287;SDS011;7745;48.708;9.026;2022-12-05T17:49:17;7.20;;;4.90;;
15287;SDS011;7745;48.708;9.026;2022-12-05T17:51:44;7.47;;;4.17;;
15287;SDS011;7745;48.708;9.026;2022-12-05T17:54:13;6.17;;;4.30;;
15287;SDS011;7745;48.708;9.026;2022-12-05T17:56:40;4.90;;;4.23;;
15287;SDS011;7745;48.708;9.026;2022-12-05T17:59:07;8.27;;;4.40;;
15287;SDS011;7745;48.708;9.026;2022-12-05T18:01:33;5.80;;;4.27;;
15287;SDS011;7745;48.708;9.026;2022-12-05T18:04:00;8.40;;;4.50;;
15287;SDS011;7745;48.708;9.026;2022-12-05T18:06:27;8.07;;;4.53;;
15287;SDS011;7745;48.708;9.026;2022-12-05T18:09:11;8.47;;;4.70;;
15287;SDS011;7745;48.708;9.026;2022-12-05T18:12:06;10.97;;;8.30;;
15287;SDS011;7745;48.708;9.026;2022-12-05T18:15:13;12.10;;;7.27;;
15287;SDS011;7745;48.708;9.026;2022-12-05T18:17:52;9.67;;;7.90;;
15287;SDS011;7745;48.708;9.026;2022-12-05T18:20:33;10.03;;;8.83;;
15287;SDS011;7745;48.708;9.026;2022-12-05T18:23:06;16.30;;;10.40;;
15287;SDS011;7745;48.708;9.026;2022-12-05T18:25:54;10.67;;;8.57;;
15287;SDS011;7745;48.708;9.026;2022-12-05T18:28:48;12.83;;;9.20;;
15287;SDS011;7745;48.708;9.026;2022-12-05T18:31:24;14.63;;;9.80;;
15287;SDS011;7745;48.708;9.026;2022-12-05T18:34:00;15.23;;;9.57;;
15287;SDS011;7745;48.708;9.026;2022-12-05T18:36:48;13.07;;;8.90;;
15287;SDS011;7745;48.708;9.026;2022-12-05T18:39:20;12.47;;;9.47;;
15287;SDS011;7745;48.708;9.026;2022-12-05T18:41:49;14.13;;;9.07;;
15287;SDS011;7745;48.708;9.026;2022-12-05T18:44:24;14.80;;;9.80;;
15287;SDS011;7745;48.708;9.026;2022-12-05T18:52:49;11.47;;;8.93;;
15287;SDS011;7745;48.708;9.026;2022-12-05T18:55:22;13.17;;;9.50;;
15287;SDS011;7745;48.708;9.026;2022-12-05T18:58:03;11.93;;;9.37;;
15287;SDS011;7745;48.708;9.026;2022-12-05T19:00:49;15.20;;;9.50;;
15287;SDS011;7745;48.708;9.026;2022-12-05T19:03:21;10.53;;;9.40;;
15287;SDS011;7745;48.708;9.026;2022-12-05T19:12:20;11.97;;;9.97;;
15287;SDS011;7745;48.708;9.026;2022-12-05T19:18:18;8.40;;;7.07;;
15287;SDS011;7745;48.708;9.026;2022-12-05T19:20:57;7.93;;;6.37;;
15287;SDS011;7745;48.708;9.026;2022-12-05T19:23:25;6.93;;;5.97;;
15287;SDS011;7745;48.708;9.026;2022-12-05T19:25:53;7.50;;;6.23;;
15287;SDS011;7745;48.708;9.026;2022-12-05T19:28:20;8.57;;;6.67;;
15287;SDS011;7745;48.708;9.026;2022-12-05T19:31:07;13.13;;;8.77;;
15287;SDS011;7745;48.708;9.026;2022-12-05T19:33:41;10.30;;;7.20;;
15287;SDS011;7745;48.708;9.026;2022-12-05T19:36:10;9.53;;;6.57;;
15287;SDS011;7745;48.708;9.026;2022-12-05T19:38:41;10.97;;;9.30;;
15287;SDS011;7745;48.708;9.026;2022-12-05T19:41:13;8.27;;;6.77;;
15287;SDS011;7745;48.708;9.026;2022-12-05T19:43:45;17.40;;;7.33;;
15287;SDS011;7745;48.708;9.026;2022-12-05T19:50:06;12.27;;;6.80;;
15287;SDS011;7745;48.708;9.026;2022-12-05T19:52:36;11.40;;;7.00;;
15287;SDS011;7745;48.708;9.026;2022-12-05T19:55:09;9.87;;;7.13;;
15287;SDS011;7745;48.708;9.026;2022-12-05T20:01:10;14.83;;;6.90;;
15287;SDS011;7745;48.708;9.026;2022-12-05T20:03:59;10.40;;;7.27;;
15287;SDS011;7745;48.708;9.026;2022-12-05T20:10:46;10.23;;;7.57;;
15287;SDS011;7745;48.708;9.026;2022-12-05T20:20:59;9.50;;;7.53;;
15287;SDS011;7745;48.708;9.026;2022-12-05T20:24:17;13.93;;;9.87;;
15287;SDS011;7745;48.708;9.026;2022-12-05T20:34:08;16.47;;;12.23;;
15287;SDS011;7745;48.708;9.026;2022-12-05T20:57:26;9.23;;;7.10;;
15287;SDS011;7745;48.708;9.026;2022-12-05T21:00:05;8.80;;;6.67;;
15287;SDS011;7745;48.708;9.026;2022-12-05T21:02:36;9.90;;;7.60;;
15287;SDS011;7745;48.708;9.026;2022-12-05T21:05:08;8.97;;;7.20;;
15287;SDS011;7745;48.708;9.026;2022-12-05T21:07:49;18.90;;;10.97;;
15287;SDS011;7745;48.708;9.026;2022-12-05T21:10:21;15.83;;;10.90;;
15287;SDS011;7745;48.708;9.026;2022-12-05T21:13:04;17.73;;;10.57;;
15287;SDS011;7745;48.708;9.026;2022-12-05T21:15:37;14.80;;;10.53;;
15287;SDS011;7745;48.708;9.026;2022-12-05T21:18:17;15.00;;;9.87;;
15287;SDS011;7745;48.708;9.026;2022-12-05T21:21:12;9.90;;;7.37;;
15287;SDS011;7745;48.708;9.026;2022-12-05T21:23:42;9.27;;;7.40;;
15287;SDS011;7745;48.708;9.026;2022-12-05T21:26:16;8.93;;;7.20;;
15287;SDS011;7745;48.708;9.026;2022-12-05T21:28:52;13.13;;;8.93;;
15287;SDS011;7745;48.708;9.026;2022-12-05T21:31:32;12.03;;;8.77;;
15287;SDS011;7745;48.708;9.026;2022-12-05T21:34:28;10.10;;;8.30;;
15287;SDS011;7745;48.708;9.026;2022-12-05T21:37:01;11.73;;;7.80;;
15287;SDS011;7745;48.708;9.026;2022-12-05T21:39:37;11.43;;;9.00;;